Accueil
METAR-TAF:

METAR-TAF

Aéroports :

Carbon County Regional Airport (Buck Davis Field)

Price, Utah, États-Unis

latitude: 39-36-33N, longitude: 110-45-17W, altitude: 1805 m

Observation

Le bulletin a été fait il y a 53 minutes, à 11:53 UTC
Vent 6 kt de nord/nord-est
Température -3°C
Humidité 50%
Pression 1012 hPa
Visibilité: 16.1 km
Nuages épars à une hauteur de 9500 ft

METAR: KPUC 041153Z AUTO 02006KT 10SM SCT095 M03/M12 A2987 RMK AO2 SLP133 T10331117 10000 21039 56002

Heure: 06:46 (12:46 UTC)


TAF: absent

Observations et prévisions météorologiques de plus de 4000 aéroports (messages METAR et TAF).

Les stations disponibles sont représentées par des disques jaunes et rouges sur la carte.

Passer la souris dessus pour voir le nom de la station.

Cliquer dessus pour voir les observations et prévisions météorologiques.

Pour changer de carte: cliquez sur les boutons verts avec une croix noire pour zoomer, sur le bouton vert avec un tiret pour effectuer un zoom arrière, ou sur les flèches vertes pour les cartes adjacentes.


METAR-TAF: